Time,TemperatureF,DewpointF,PressureIn,WindDirection,WindDirectionDegrees,WindSpeedMPH,WindSpeedGustMPH,Humidity,HourlyPrecipIn,Conditions,Clouds,dailyrainin,SoftwareType,DateUTC
2013-04-27 00:07:00,80.2,75.0,29.93,ENE,60,8.0,10.0,83,0.00,,,0.00,weatherlink.com 1.10,2013-04-27 04:07:00,
2013-04-27 00:22:00,80.1,75.0,29.92,North,5,1.0,9.0,83,0.00,,,0.00,weatherlink.com 1.10,2013-04-27 04:22:00,
2013-04-27 00:37:00,80.0,74.0,29.91,ENE,58,5.0,9.0,83,0.00,,,0.00,weatherlink.com 1.10,2013-04-27 04:37:00,
2013-04-27 00:52:00,80.0,75.0,29.91,NE,51,6.0,7.0,84,0.00,,,0.00,weatherlink.com 1.10,2013-04-27 04:52:00,
2013-04-27 01:07:00,80.0,75.0,29.91,NNE,24,5.0,8.0,84,0.00,,,0.00,weatherlink.com 1.10,2013-04-27 05:07:00,
2013-04-27 01:23:00,79.8,74.0,29.90,NNE,23,2.0,11.0,83,0.00,,,0.00,weatherlink.com 1.10,2013-04-27 05:23:00,
2013-04-27 01:38:00,79.8,74.0,29.90,NE,55,5.0,9.0,83,0.00,,,0.00,weatherlink.com 1.10,2013-04-27 05:38:00,
2013-04-27 01:53:00,79.7,74.0,29.89,NE,39,4.0,10.0,83,0.00,,,0.00,weatherlink.com 1.10,2013-04-27 05:53:00,
2013-04-27 02:08:00,79.6,74.0,29.89,ENE,59,2.0,11.0,84,0.00,,,0.00,weatherlink.com 1.10,2013-04-27 06:08:00,
2013-04-27 02:23:00,79.5,74.0,29.88,ENE,63,3.0,10.0,84,0.00,,,0.00,weatherlink.com 1.10,2013-04-27 06:23:00,
2013-04-27 02:38:00,79.4,75.0,29.88,NNE,17,2.0,8.0,85,0.00,,,0.00,weatherlink.com 1.10,2013-04-27 06:38:00,
2013-04-27 02:53:00,79.4,75.0,29.87,ENE,57,5.0,6.0,85,0.00,,,0.00,weatherlink.com 1.10,2013-04-27 06:53:00,
2013-04-27 03:08:00,79.3,75.0,29.86,NE,39,3.0,8.0,85,0.00,,,0.00,weatherlink.com 1.10,2013-04-27 07:08:00,
2013-04-27 03:23:00,79.5,75.0,29.86,NE,53,3.0,5.0,85,0.00,,,0.00,weatherlink.com 1.10,2013-04-27 07:23:00,
2013-04-27 03:38:00,79.6,75.0,29.86,NE,56,4.0,10.0,85,0.00,,,0.00,weatherlink.com 1.10,2013-04-27 07:38:00,
2013-04-27 03:53:00,79.4,75.0,29.85,NE,39,1.0,6.0,85,0.00,,,0.00,weatherlink.com 1.10,2013-04-27 07:53:00,
2013-04-27 04:08:00,79.5,75.0,29.86,ENE,77,3.0,8.0,86,0.00,,,0.00,weatherlink.com 1.10,2013-04-27 08:08:00,
2013-04-27 04:23:00,79.5,75.0,29.85,ENE,63,5.0,7.0,86,0.00,,,0.00,weatherlink.com 1.10,2013-04-27 08:23:00,
2013-04-27 04:38:00,79.3,75.0,29.86,ENE,69,5.0,9.0,86,0.00,,,0.00,weatherlink.com 1.10,2013-04-27 08:38:00,
2013-04-27 04:53:00,79.4,75.0,29.86,NE,36,4.0,9.0,86,0.00,,,0.00,weatherlink.com 1.10,2013-04-27 08:53:00,
2013-04-27 05:08:00,79.3,74.0,29.86,ENE,57,3.0,10.0,84,0.00,,,0.00,weatherlink.com 1.10,2013-04-27 09:08:00,
2013-04-27 05:23:00,79.2,75.0,29.86,NE,48,7.0,8.0,86,0.00,,,0.00,weatherlink.com 1.10,2013-04-27 09:23:00,
2013-04-27 05:38:00,79.2,74.0,29.87,NE,49,3.0,9.0,85,0.00,,,0.00,weatherlink.com 1.10,2013-04-27 09:38:00,
2013-04-27 05:53:00,79.3,75.0,29.88,ENE,70,2.0,9.0,85,0.00,,,0.00,weatherlink.com 1.10,2013-04-27 09:53:00,
2013-04-27 06:08:00,79.3,75.0,29.88,NNE,19,1.0,6.0,85,0.00,,,0.00,weatherlink.com 1.10,2013-04-27 10:08:00,
2013-04-27 06:23:00,79.3,75.0,29.88,NE,48,4.0,7.0,85,0.00,,,0.00,weatherlink.com 1.10,2013-04-27 10:23:00,
2013-04-27 06:38:00,79.6,75.0,29.88,ENE,61,2.0,8.0,85,0.00,,,0.00,weatherlink.com 1.10,2013-04-27 10:38:00,
2013-04-27 06:53:00,80.3,75.0,29.89,East,92,6.0,9.0,84,0.00,,,0.00,weatherlink.com 1.10,2013-04-27 10:53:00,
2013-04-27 07:08:00,81.3,75.0,29.89,ENE,64,2.0,10.0,80,0.00,,,0.00,weatherlink.com 1.10,2013-04-27 11:08:00,
2013-04-27 07:23:00,81.5,75.0,29.90,NNE,22,1.0,11.0,80,0.00,,,0.00,weatherlink.com 1.10,2013-04-27 11:23:00,
2013-04-27 07:38:00,82.0,75.0,29.90,ENE,57,10.0,12.0,79,0.00,,,0.00,weatherlink.com 1.10,2013-04-27 11:38:00,
2013-04-27 07:53:00,81.8,75.0,29.90,NNE,30,5.0,12.0,79,0.00,,,0.00,weatherlink.com 1.10,2013-04-27 11:53:00,
2013-04-27 08:08:00,83.4,76.0,29.90,North,9,4.0,10.0,77,0.00,,,0.00,weatherlink.com 1.10,2013-04-27 12:08:00,
2013-04-27 08:23:00,83.7,75.0,29.91,East,94,2.0,12.0,76,0.00,,,0.00,weatherlink.com 1.10,2013-04-27 12:23:00,
2013-04-27 08:38:00,83.8,75.0,29.91,NE,51,6.0,12.0,75,0.00,,,0.00,weatherlink.com 1.10,2013-04-27 12:38:00,
2013-04-27 08:53:00,84.2,75.0,29.91,East,91,7.0,15.0,74,0.00,,,0.00,weatherlink.com 1.10,2013-04-27 12:53:00,
2013-04-27 09:08:00,84.5,75.0,29.91,NE,55,8.0,17.0,73,0.00,,,0.00,weatherlink.com 1.10,2013-04-27 13:08:00,
2013-04-27 09:23:00,85.0,75.0,29.91,North,11,4.0,13.0,73,0.00,,,0.00,weatherlink.com 1.10,2013-04-27 13:23:00,
2013-04-27 09:38:00,85.1,76.0,29.91,NNE,25,5.0,14.0,73,0.00,,,0.00,weatherlink.com 1.10,2013-04-27 13:38:00,
2013-04-27 09:53:00,85.5,76.0,29.91,ENE,61,14.0,14.0,72,0.00,,,0.00,weatherlink.com 1.10,2013-04-27 13:53:00,
2013-04-27 10:08:00,85.9,76.0,29.92,NE,52,4.0,15.0,71,0.00,,,0.00,weatherlink.com 1.10,2013-04-27 14:08:00,
2013-04-27 10:23:00,86.2,76.0,29.92,NE,54,5.0,13.0,71,0.00,,,0.00,weatherlink.com 1.10,2013-04-27 14:23:00,
2013-04-27 10:38:00,86.8,76.0,29.92,North,349,7.0,12.0,71,0.00,,,0.00,weatherlink.com 1.10,2013-04-27 14:38:00,
2013-04-27 10:53:00,87.1,75.0,29.92,NE,51,6.0,14.0,68,0.00,,,0.00,weatherlink.com 1.10,2013-04-27 14:53:00,
2013-04-27 11:08:00,86.8,76.0,29.91,ESE,107,13.0,15.0,70,0.00,,,0.00,weatherlink.com 1.10,2013-04-27 15:08:00,
2013-04-27 11:23:00,85.5,76.0,29.91,East,98,7.0,13.0,73,0.00,,,0.00,weatherlink.com 1.10,2013-04-27 15:23:00,
2013-04-27 11:38:00,84.5,76.0,29.91,ENE,59,13.0,14.0,75,0.00,,,0.00,weatherlink.com 1.10,2013-04-27 15:38:00,
2013-04-27 11:53:00,85.8,75.0,29.91,NE,52,9.0,16.0,71,0.00,,,0.00,weatherlink.com 1.10,2013-04-27 15:53:00,
2013-04-27 12:08:00,86.1,76.0,29.91,NE,42,9.0,14.0,72,0.00,,,0.00,weatherlink.com 1.10,2013-04-27 16:08:00,
2013-04-27 12:24:00,83.8,77.0,29.91,ENE,63,10.0,11.0,80,0.01,,,0.01,weatherlink.com 1.10,2013-04-27 16:24:00,
2013-04-27 12:39:00,80.8,76.0,29.90,East,94,8.0,16.0,86,0.08,,,0.08,weatherlink.com 1.10,2013-04-27 16:39:00,
2013-04-27 12:54:00,81.5,75.0,29.89,ENE,59,8.0,14.0,81,0.08,,,0.08,weatherlink.com 1.10,2013-04-27 16:54:00,
2013-04-27 13:09:00,83.5,76.0,29.88,NE,56,6.0,16.0,77,0.08,,,0.08,weatherlink.com 1.10,2013-04-27 17:09:00,
2013-04-27 13:24:00,84.6,76.0,29.87,East,90,6.0,14.0,76,0.06,,,0.08,weatherlink.com 1.10,2013-04-27 17:24:00,
2013-04-27 13:39:00,84.2,76.0,29.86,NE,46,7.0,16.0,76,0.00,,,0.08,weatherlink.com 1.10,2013-04-27 17:39:00,
2013-04-27 13:54:00,85.5,75.0,29.85,East,100,6.0,15.0,70,0.00,,,0.08,weatherlink.com 1.10,2013-04-27 17:54:00,
2013-04-27 14:09:00,86.4,76.0,29.85,ENE,69,10.0,19.0,70,0.00,,,0.08,weatherlink.com 1.10,2013-04-27 18:09:00,
2013-04-27 14:24:00,85.6,76.0,29.84,ENE,76,10.0,16.0,72,0.00,,,0.08,weatherlink.com 1.10,2013-04-27 18:24:00,
2013-04-27 14:39:00,84.7,76.0,29.83,ENE,63,11.0,14.0,75,0.00,,,0.08,weatherlink.com 1.10,2013-04-27 18:39:00,
2013-04-27 14:54:00,85.1,76.0,29.83,ENE,65,10.0,17.0,73,0.00,,,0.08,weatherlink.com 1.10,2013-04-27 18:54:00,
2013-04-27 15:09:00,85.2,75.0,29.82,ENE,63,7.0,15.0,72,0.00,,,0.08,weatherlink.com 1.10,2013-04-27 19:09:00,
2013-04-27 15:24:00,85.2,75.0,29.82,NE,36,8.0,17.0,72,0.00,,,0.08,weatherlink.com 1.10,2013-04-27 19:24:00,
2013-04-27 15:39:00,84.9,75.0,29.82,NNE,12,4.0,13.0,73,0.00,,,0.08,weatherlink.com 1.10,2013-04-27 19:39:00,
2013-04-27 15:54:00,84.9,75.0,29.81,North,355,4.0,14.0,73,0.00,,,0.08,weatherlink.com 1.10,2013-04-27 19:54:00,
2013-04-27 16:09:00,84.9,75.0,29.81,ENE,61,5.0,12.0,73,0.00,,,0.08,weatherlink.com 1.10,2013-04-27 20:09:00,
2013-04-27 16:24:00,84.5,75.0,29.81,ENE,62,4.0,14.0,74,0.00,,,0.08,weatherlink.com 1.10,2013-04-27 20:24:00,
2013-04-27 16:39:00,83.9,76.0,29.80,East,80,8.0,13.0,76,0.00,,,0.08,weatherlink.com 1.10,2013-04-27 20:39:00,
2013-04-27 16:54:00,83.2,75.0,29.80,ENE,57,11.0,14.0,75,0.00,,,0.08,weatherlink.com 1.10,2013-04-27 20:54:00,
2013-04-27 17:09:00,82.7,75.0,29.81,NE,47,6.0,16.0,77,0.00,,,0.08,weatherlink.com 1.10,2013-04-27 21:09:00,
2013-04-27 17:24:00,82.7,75.0,29.82,ENE,72,11.0,12.0,77,0.00,,,0.08,weatherlink.com 1.10,2013-04-27 21:24:00,
2013-04-27 17:39:00,82.8,75.0,29.81,ENE,70,5.0,13.0,77,0.00,,,0.08,weatherlink.com 1.10,2013-04-27 21:39:00,
2013-04-27 17:54:00,82.3,75.0,29.81,ENE,66,3.0,15.0,78,0.00,,,0.08,weatherlink.com 1.10,2013-04-27 21:54:00,
2013-04-27 18:09:00,82.1,75.0,29.82,ENE,63,7.0,11.0,79,0.00,,,0.08,weatherlink.com 1.10,2013-04-27 22:09:00,
2013-04-27 18:24:00,81.8,75.0,29.82,ENE,59,5.0,10.0,80,0.00,,,0.08,weatherlink.com 1.10,2013-04-27 22:24:00,
2013-04-27 18:39:00,81.6,76.0,29.83,NE,53,5.0,11.0,82,0.00,,,0.08,weatherlink.com 1.10,2013-04-27 22:39:00,
2013-04-27 18:54:00,81.2,75.0,29.84,NE,53,5.0,10.0,80,0.00,,,0.08,weatherlink.com 1.10,2013-04-27 22:54:00,
2013-04-27 19:09:00,81.0,75.0,29.84,East,91,2.0,9.0,82,0.00,,,0.08,weatherlink.com 1.10,2013-04-27 23:09:00,
2013-04-27 19:24:00,80.9,75.0,29.84,ENE,78,4.0,12.0,81,0.00,,,0.08,weatherlink.com 1.10,2013-04-27 23:24:00,
2013-04-27 19:39:00,81.0,75.0,29.84,East,88,1.0,12.0,81,0.00,,,0.08,weatherlink.com 1.10,2013-04-27 23:39:00,
2013-04-27 19:54:00,81.1,74.0,29.85,ENE,73,3.0,10.0,80,0.00,,,0.08,weatherlink.com 1.10,2013-04-27 23:54:00,
2013-04-27 20:09:00,81.1,74.0,29.85,NE,45,7.0,12.0,80,0.00,,,0.08,weatherlink.com 1.10,2013-04-28 00:09:00,
2013-04-27 20:24:00,81.0,74.0,29.85,East,80,3.0,10.0,80,0.00,,,0.08,weatherlink.com 1.10,2013-04-28 00:24:00,
2013-04-27 20:39:00,80.9,74.0,29.86,NE,55,4.0,8.0,80,0.00,,,0.08,weatherlink.com 1.10,2013-04-28 00:39:00,
2013-04-27 20:54:00,80.9,75.0,29.86,East,81,6.0,11.0,81,0.00,,,0.08,weatherlink.com 1.10,2013-04-28 00:54:00,
2013-04-27 21:09:00,80.8,75.0,29.87,ENE,74,7.0,10.0,81,0.00,,,0.08,weatherlink.com 1.10,2013-04-28 01:09:00,
2013-04-27 21:24:00,80.8,75.0,29.87,NE,56,8.0,10.0,82,0.00,,,0.08,weatherlink.com 1.10,2013-04-28 01:24:00,
2013-04-27 21:39:00,80.8,75.0,29.88,NE,45,2.0,8.0,82,0.00,,,0.08,weatherlink.com 1.10,2013-04-28 01:39:00,
2013-04-27 21:54:00,80.7,75.0,29.88,ENE,68,4.0,12.0,82,0.00,,,0.08,weatherlink.com 1.10,2013-04-28 01:54:00,
2013-04-27 22:09:00,80.7,75.0,29.88,NE,44,4.0,7.0,82,0.00,,,0.08,weatherlink.com 1.10,2013-04-28 02:09:00,
2013-04-27 22:24:00,80.6,75.0,29.89,NE,42,3.0,11.0,82,0.00,,,0.08,weatherlink.com 1.10,2013-04-28 02:24:00,
2013-04-27 22:39:00,80.7,75.0,29.89,East,96,6.0,12.0,82,0.00,,,0.08,weatherlink.com 1.10,2013-04-28 02:39:00,
2013-04-27 22:54:00,80.6,75.0,29.88,ENE,72,4.0,7.0,82,0.00,,,0.08,weatherlink.com 1.10,2013-04-28 02:54:00,
2013-04-27 23:09:00,80.7,75.0,29.88,NE,55,4.0,9.0,83,0.00,,,0.08,weatherlink.com 1.10,2013-04-28 03:09:00,
2013-04-27 23:24:00,80.7,75.0,29.88,ENE,66,5.0,10.0,82,0.00,,,0.08,weatherlink.com 1.10,2013-04-28 03:24:00,
2013-04-27 23:39:00,80.6,75.0,29.88,ENE,63,3.0,10.0,83,0.00,,,0.08,weatherlink.com 1.10,2013-04-28 03:39:00,
2013-04-27 23:54:00,80.5,75.0,29.87,East,84,7.0,9.0,83,0.00,,,0.08,weatherlink.com 1.10,2013-04-28 03:54:00,